sensor_id;sensor_type;location;lat;lon;timestamp;P1;durP1;ratioP1;P2;durP2;ratioP2
3549;SDS011;45572;48.804;8.330;2023-05-07T00:01:04;2.40;;;1.95;;
3549;SDS011;45572;48.804;8.330;2023-05-07T00:03:32;7.78;;;2.33;;
3549;SDS011;45572;48.804;8.330;2023-05-07T00:06:00;5.00;;;2.70;;
3549;SDS011;45572;48.804;8.330;2023-05-07T00:08:29;2.95;;;1.95;;
3549;SDS011;45572;48.804;8.330;2023-05-07T00:10:57;3.17;;;2.10;;
3549;SDS011;45572;48.804;8.330;2023-05-07T00:13:26;6.05;;;1.90;;
3549;SDS011;45572;48.804;8.330;2023-05-07T00:15:56;4.10;;;2.25;;
3549;SDS011;45572;48.804;8.330;2023-05-07T00:18:24;4.60;;;2.55;;
3549;SDS011;45572;48.804;8.330;2023-05-07T00:20:52;2.90;;;1.77;;
3549;SDS011;45572;48.804;8.330;2023-05-07T00:23:20;2.30;;;2.03;;
3549;SDS011;45572;48.804;8.330;2023-05-07T00:25:50;4.35;;;2.20;;
3549;SDS011;45572;48.804;8.330;2023-05-07T00:28:18;4.70;;;2.30;;
3549;SDS011;45572;48.804;8.330;2023-05-07T00:30:46;3.40;;;2.20;;
3549;SDS011;45572;48.804;8.330;2023-05-07T00:33:14;3.13;;;2.28;;
3549;SDS011;45572;48.804;8.330;2023-05-07T00:35:43;3.97;;;2.20;;
3549;SDS011;45572;48.804;8.330;2023-05-07T00:38:11;3.60;;;2.50;;
3549;SDS011;45572;48.804;8.330;2023-05-07T00:40:39;5.03;;;2.10;;
3549;SDS011;45572;48.804;8.330;2023-05-07T00:43:08;3.15;;;2.10;;
3549;SDS011;45572;48.804;8.330;2023-05-07T00:45:36;4.00;;;1.98;;
3549;SDS011;45572;48.804;8.330;2023-05-07T00:48:04;2.42;;;1.60;;
3549;SDS011;45572;48.804;8.330;2023-05-07T00:50:32;3.58;;;2.05;;
3549;SDS011;45572;48.804;8.330;2023-05-07T00:53:00;3.85;;;2.40;;
3549;SDS011;45572;48.804;8.330;2023-05-07T00:55:28;3.13;;;1.92;;
3549;SDS011;45572;48.804;8.330;2023-05-07T00:57:57;3.95;;;2.10;;
3549;SDS011;45572;48.804;8.330;2023-05-07T01:00:26;3.67;;;1.95;;
3549;SDS011;45572;48.804;8.330;2023-05-07T01:02:54;6.70;;;2.13;;
3549;SDS011;45572;48.804;8.330;2023-05-07T01:05:23;6.20;;;2.10;;
3549;SDS011;45572;48.804;8.330;2023-05-07T01:07:53;4.63;;;2.42;;
3549;SDS011;45572;48.804;8.330;2023-05-07T01:10:22;1.92;;;1.70;;
3549;SDS011;45572;48.804;8.330;2023-05-07T01:12:52;4.28;;;1.90;;
3549;SDS011;45572;48.804;8.330;2023-05-07T01:15:21;3.35;;;1.55;;
3549;SDS011;45572;48.804;8.330;2023-05-07T01:17:50;3.53;;;2.58;;
3549;SDS011;45572;48.804;8.330;2023-05-07T01:20:26;2.95;;;1.75;;
3549;SDS011;45572;48.804;8.330;2023-05-07T01:22:57;3.88;;;1.92;;
3549;SDS011;45572;48.804;8.330;2023-05-07T01:25:26;2.42;;;1.88;;
3549;SDS011;45572;48.804;8.330;2023-05-07T01:27:57;2.55;;;1.83;;
3549;SDS011;45572;48.804;8.330;2023-05-07T01:30:31;6.43;;;1.80;;
3549;SDS011;45572;48.804;8.330;2023-05-07T01:33:04;2.53;;;1.73;;
3549;SDS011;45572;48.804;8.330;2023-05-07T01:35:37;1.60;;;1.50;;
3549;SDS011;45572;48.804;8.330;2023-05-07T01:38:09;4.07;;;2.65;;
3549;SDS011;45572;48.804;8.330;2023-05-07T01:40:37;3.33;;;2.00;;
3549;SDS011;45572;48.804;8.330;2023-05-07T01:43:06;4.78;;;2.13;;
3549;SDS011;45572;48.804;8.330;2023-05-07T01:45:36;3.08;;;1.77;;
3549;SDS011;45572;48.804;8.330;2023-05-07T01:48:05;2.45;;;2.25;;
3549;SDS011;45572;48.804;8.330;2023-05-07T01:50:34;4.35;;;2.58;;
3549;SDS011;45572;48.804;8.330;2023-05-07T01:53:03;2.95;;;2.28;;
3549;SDS011;45572;48.804;8.330;2023-05-07T01:55:32;7.45;;;3.65;;
3549;SDS011;45572;48.804;8.330;2023-05-07T01:58:01;2.72;;;2.30;;
3549;SDS011;45572;48.804;8.330;2023-05-07T02:00:29;3.47;;;2.03;;
3549;SDS011;45572;48.804;8.330;2023-05-07T02:02:58;5.18;;;1.90;;
3549;SDS011;45572;48.804;8.330;2023-05-07T02:05:35;4.68;;;1.77;;
3549;SDS011;45572;48.804;8.330;2023-05-07T02:08:09;4.47;;;2.03;;
3549;SDS011;45572;48.804;8.330;2023-05-07T02:10:39;2.38;;;2.00;;
3549;SDS011;45572;48.804;8.330;2023-05-07T02:13:06;4.40;;;2.38;;
3549;SDS011;45572;48.804;8.330;2023-05-07T02:15:34;29.40;;;4.45;;
3549;SDS011;45572;48.804;8.330;2023-05-07T02:18:04;2.97;;;1.60;;
3549;SDS011;45572;48.804;8.330;2023-05-07T02:20:34;7.10;;;2.38;;
3549;SDS011;45572;48.804;8.330;2023-05-07T02:23:02;4.22;;;2.30;;
3549;SDS011;45572;48.804;8.330;2023-05-07T02:25:30;2.42;;;2.10;;
3549;SDS011;45572;48.804;8.330;2023-05-07T02:27:59;3.15;;;2.50;;
3549;SDS011;45572;48.804;8.330;2023-05-07T02:30:39;3.40;;;2.83;;
3549;SDS011;45572;48.804;8.330;2023-05-07T02:33:07;5.22;;;2.70;;
3549;SDS011;45572;48.804;8.330;2023-05-07T02:35:35;7.30;;;2.58;;
3549;SDS011;45572;48.804;8.330;2023-05-07T02:38:05;3.08;;;2.20;;
3549;SDS011;45572;48.804;8.330;2023-05-07T02:40:34;3.95;;;2.40;;
3549;SDS011;45572;48.804;8.330;2023-05-07T02:43:09;3.92;;;2.50;;
3549;SDS011;45572;48.804;8.330;2023-05-07T02:45:39;4.00;;;2.70;;
3549;SDS011;45572;48.804;8.330;2023-05-07T02:48:07;4.75;;;2.60;;
3549;SDS011;45572;48.804;8.330;2023-05-07T02:50:36;3.60;;;2.38;;
3549;SDS011;45572;48.804;8.330;2023-05-07T02:53:04;3.58;;;2.47;;
3549;SDS011;45572;48.804;8.330;2023-05-07T02:55:32;4.15;;;2.80;;
3549;SDS011;45572;48.804;8.330;2023-05-07T02:58:00;3.70;;;2.60;;
3549;SDS011;45572;48.804;8.330;2023-05-07T03:00:33;2.45;;;2.17;;
3549;SDS011;45572;48.804;8.330;2023-05-07T03:03:17;7.60;;;2.47;;
3549;SDS011;45572;48.804;8.330;2023-05-07T03:05:44;5.22;;;2.03;;
3549;SDS011;45572;48.804;8.330;2023-05-07T03:08:12;4.95;;;2.40;;
3549;SDS011;45572;48.804;8.330;2023-05-07T03:10:40;3.60;;;2.17;;
3549;SDS011;45572;48.804;8.330;2023-05-07T03:13:08;4.38;;;2.28;;
3549;SDS011;45572;48.804;8.330;2023-05-07T03:15:37;2.75;;;2.10;;
3549;SDS011;45572;48.804;8.330;2023-05-07T03:18:06;3.78;;;2.13;;
3549;SDS011;45572;48.804;8.330;2023-05-07T03:20:35;6.90;;;2.15;;
3549;SDS011;45572;48.804;8.330;2023-05-07T03:23:03;3.92;;;2.55;;
3549;SDS011;45572;48.804;8.330;2023-05-07T03:25:31;3.83;;;2.28;;
3549;SDS011;45572;48.804;8.330;2023-05-07T03:27:59;4.63;;;3.53;;
3549;SDS011;45572;48.804;8.330;2023-05-07T03:30:37;5.05;;;2.72;;
3549;SDS011;45572;48.804;8.330;2023-05-07T03:33:05;3.45;;;2.20;;
3549;SDS011;45572;48.804;8.330;2023-05-07T03:35:34;2.65;;;2.20;;
3549;SDS011;45572;48.804;8.330;2023-05-07T03:38:03;7.13;;;2.63;;
3549;SDS011;45572;48.804;8.330;2023-05-07T03:40:34;7.32;;;2.60;;
3549;SDS011;45572;48.804;8.330;2023-05-07T03:43:04;8.82;;;2.25;;
3549;SDS011;45572;48.804;8.330;2023-05-07T03:45:34;3.15;;;2.15;;
3549;SDS011;45572;48.804;8.330;2023-05-07T03:48:12;3.28;;;2.88;;
3549;SDS011;45572;48.804;8.330;2023-05-07T03:50:40;3.58;;;2.67;;
3549;SDS011;45572;48.804;8.330;2023-05-07T03:53:10;3.20;;;2.50;;
3549;SDS011;45572;48.804;8.330;2023-05-07T03:55:38;4.40;;;2.25;;
3549;SDS011;45572;48.804;8.330;2023-05-07T03:58:06;4.93;;;3.60;;
3549;SDS011;45572;48.804;8.330;2023-05-07T04:00:37;4.82;;;2.30;;
3549;SDS011;45572;48.804;8.330;2023-05-07T04:03:21;4.93;;;2.15;;
3549;SDS011;45572;48.804;8.330;2023-05-07T04:05:51;4.53;;;2.40;;
3549;SDS011;45572;48.804;8.330;2023-05-07T04:08:19;3.72;;;2.33;;
3549;SDS011;45572;48.804;8.330;2023-05-07T04:10:54;9.88;;;2.45;;
3549;SDS011;45572;48.804;8.330;2023-05-07T04:13:24;4.57;;;2.60;;
3549;SDS011;45572;48.804;8.330;2023-05-07T04:15:54;8.63;;;3.10;;
3549;SDS011;45572;48.804;8.330;2023-05-07T04:18:26;5.35;;;3.10;;
3549;SDS011;45572;48.804;8.330;2023-05-07T04:20:54;3.33;;;2.53;;
3549;SDS011;45572;48.804;8.330;2023-05-07T04:23:23;3.90;;;2.80;;
3549;SDS011;45572;48.804;8.330;2023-05-07T04:25:52;8.40;;;2.83;;
3549;SDS011;45572;48.804;8.330;2023-05-07T04:28:27;5.63;;;2.92;;
3549;SDS011;45572;48.804;8.330;2023-05-07T04:30:55;3.63;;;2.70;;
3549;SDS011;45572;48.804;8.330;2023-05-07T04:33:24;3.90;;;2.60;;
3549;SDS011;45572;48.804;8.330;2023-05-07T04:35:54;4.43;;;2.60;;
3549;SDS011;45572;48.804;8.330;2023-05-07T04:38:22;3.42;;;2.72;;
3549;SDS011;45572;48.804;8.330;2023-05-07T04:40:52;3.42;;;2.70;;
3549;SDS011;45572;48.804;8.330;2023-05-07T04:43:23;3.45;;;2.92;;
3549;SDS011;45572;48.804;8.330;2023-05-07T04:45:52;7.07;;;2.85;;
3549;SDS011;45572;48.804;8.330;2023-05-07T04:48:23;4.82;;;2.80;;
3549;SDS011;45572;48.804;8.330;2023-05-07T04:50:54;4.93;;;2.55;;
3549;SDS011;45572;48.804;8.330;2023-05-07T04:53:22;4.13;;;1.98;;
3549;SDS011;45572;48.804;8.330;2023-05-07T04:55:54;10.45;;;2.67;;
3549;SDS011;45572;48.804;8.330;2023-05-07T04:58:29;4.13;;;2.72;;
3549;SDS011;45572;48.804;8.330;2023-05-07T05:00:59;2.85;;;2.38;;
3549;SDS011;45572;48.804;8.330;2023-05-07T05:03:29;5.85;;;3.10;;
3549;SDS011;45572;48.804;8.330;2023-05-07T05:05:59;3.17;;;2.85;;
3549;SDS011;45572;48.804;8.330;2023-05-07T05:08:31;5.95;;;2.90;;
3549;SDS011;45572;48.804;8.330;2023-05-07T05:11:01;3.53;;;3.22;;
3549;SDS011;45572;48.804;8.330;2023-05-07T05:13:33;3.83;;;2.53;;
3549;SDS011;45572;48.804;8.330;2023-05-07T05:16:07;7.07;;;2.40;;
3549;SDS011;45572;48.804;8.330;2023-05-07T05:18:35;3.78;;;2.78;;
3549;SDS011;45572;48.804;8.330;2023-05-07T05:21:04;3.20;;;2.90;;
3549;SDS011;45572;48.804;8.330;2023-05-07T05:23:33;3.65;;;2.90;;
3549;SDS011;45572;48.804;8.330;2023-05-07T05:26:01;4.63;;;2.97;;
3549;SDS011;45572;48.804;8.330;2023-05-07T05:28:32;4.20;;;2.30;;
3549;SDS011;45572;48.804;8.330;2023-05-07T05:31:01;5.10;;;2.00;;
3549;SDS011;45572;48.804;8.330;2023-05-07T05:33:33;4.32;;;2.75;;
3549;SDS011;45572;48.804;8.330;2023-05-07T05:36:05;7.10;;;2.45;;
3549;SDS011;45572;48.804;8.330;2023-05-07T05:38:36;3.65;;;2.28;;
3549;SDS011;45572;48.804;8.330;2023-05-07T05:41:04;3.25;;;2.53;;
3549;SDS011;45572;48.804;8.330;2023-05-07T05:43:32;3.67;;;2.03;;
3549;SDS011;45572;48.804;8.330;2023-05-07T05:46:00;3.65;;;2.40;;
3549;SDS011;45572;48.804;8.330;2023-05-07T05:48:28;6.13;;;2.85;;
3549;SDS011;45572;48.804;8.330;2023-05-07T05:50:59;3.22;;;2.65;;
3549;SDS011;45572;48.804;8.330;2023-05-07T05:53:30;4.25;;;2.83;;
3549;SDS011;45572;48.804;8.330;2023-05-07T05:55:59;4.25;;;1.85;;
3549;SDS011;45572;48.804;8.330;2023-05-07T05:58:29;3.67;;;2.45;;
3549;SDS011;45572;48.804;8.330;2023-05-07T06:01:00;3.08;;;2.20;;
3549;SDS011;45572;48.804;8.330;2023-05-07T06:03:30;4.28;;;2.20;;
3549;SDS011;45572;48.804;8.330;2023-05-07T06:06:04;4.80;;;2.17;;
3549;SDS011;45572;48.804;8.330;2023-05-07T06:08:33;2.83;;;1.70;;
3549;SDS011;45572;48.804;8.330;2023-05-07T06:11:02;2.57;;;2.00;;
3549;SDS011;45572;48.804;8.330;2023-05-07T06:13:34;3.07;;;1.90;;
3549;SDS011;45572;48.804;8.330;2023-05-07T06:16:03;3.57;;;1.77;;
3549;SDS011;45572;48.804;8.330;2023-05-07T06:18:31;3.03;;;1.80;;
3549;SDS011;45572;48.804;8.330;2023-05-07T06:20:59;2.70;;;1.63;;
3549;SDS011;45572;48.804;8.330;2023-05-07T06:23:30;1.30;;;1.17;;
3549;SDS011;45572;48.804;8.330;2023-05-07T06:26:02;2.37;;;1.70;;
3549;SDS011;45572;48.804;8.330;2023-05-07T06:28:36;1.77;;;1.50;;
3549;SDS011;45572;48.804;8.330;2023-05-07T06:31:11;4.43;;;1.73;;
3549;SDS011;45572;48.804;8.330;2023-05-07T06:33:42;2.57;;;1.43;;
3549;SDS011;45572;48.804;8.330;2023-05-07T06:36:13;6.47;;;1.40;;
3549;SDS011;45572;48.804;8.330;2023-05-07T06:38:42;6.07;;;1.40;;
3549;SDS011;45572;48.804;8.330;2023-05-07T06:41:11;6.07;;;1.80;;
3549;SDS011;45572;48.804;8.330;2023-05-07T06:43:39;1.80;;;1.40;;
3549;SDS011;45572;48.804;8.330;2023-05-07T06:46:27;2.50;;;1.30;;
3549;SDS011;45572;48.804;8.330;2023-05-07T06:48:55;2.10;;;1.90;;
3549;SDS011;45572;48.804;8.330;2023-05-07T06:51:26;3.10;;;1.40;;
3549;SDS011;45572;48.804;8.330;2023-05-07T06:53:56;2.73;;;1.43;;
3549;SDS011;45572;48.804;8.330;2023-05-07T06:56:25;6.87;;;1.73;;
3549;SDS011;45572;48.804;8.330;2023-05-07T06:58:53;1.90;;;1.53;;
3549;SDS011;45572;48.804;8.330;2023-05-07T07:01:21;2.17;;;1.97;;
3549;SDS011;45572;48.804;8.330;2023-05-07T07:03:49;4.47;;;2.37;;
3549;SDS011;45572;48.804;8.330;2023-05-07T07:06:20;6.07;;;2.57;;
3549;SDS011;45572;48.804;8.330;2023-05-07T07:08:48;3.90;;;2.83;;
3549;SDS011;45572;48.804;8.330;2023-05-07T07:11:17;2.27;;;1.90;;
3549;SDS011;45572;48.804;8.330;2023-05-07T07:13:47;4.43;;;2.33;;
3549;SDS011;45572;48.804;8.330;2023-05-07T07:16:18;3.13;;;2.43;;
3549;SDS011;45572;48.804;8.330;2023-05-07T07:18:47;3.33;;;2.03;;
3549;SDS011;45572;48.804;8.330;2023-05-07T07:21:17;3.57;;;2.10;;
3549;SDS011;45572;48.804;8.330;2023-05-07T07:23:45;4.17;;;2.40;;
3549;SDS011;45572;48.804;8.330;2023-05-07T07:26:14;4.40;;;2.63;;
3549;SDS011;45572;48.804;8.330;2023-05-07T07:28:42;2.83;;;2.30;;
3549;SDS011;45572;48.804;8.330;2023-05-07T07:31:14;3.77;;;2.63;;
3549;SDS011;45572;48.804;8.330;2023-05-07T07:33:46;5.93;;;2.30;;
3549;SDS011;45572;48.804;8.330;2023-05-07T07:36:14;4.10;;;2.40;;
3549;SDS011;45572;48.804;8.330;2023-05-07T07:38:42;4.23;;;2.47;;
3549;SDS011;45572;48.804;8.330;2023-05-07T07:41:11;5.10;;;2.20;;
3549;SDS011;45572;48.804;8.330;2023-05-07T07:43:40;4.47;;;2.27;;
3549;SDS011;45572;48.804;8.330;2023-05-07T07:46:08;2.77;;;2.53;;
3549;SDS011;45572;48.804;8.330;2023-05-07T07:48:39;3.60;;;2.57;;
3549;SDS011;45572;48.804;8.330;2023-05-07T07:51:07;6.20;;;2.67;;
3549;SDS011;45572;48.804;8.330;2023-05-07T07:53:36;3.53;;;2.30;;
3549;SDS011;45572;48.804;8.330;2023-05-07T07:56:04;3.83;;;2.53;;
3549;SDS011;45572;48.804;8.330;2023-05-07T07:58:34;4.13;;;3.23;;
3549;SDS011;45572;48.804;8.330;2023-05-07T08:01:04;3.80;;;2.80;;
3549;SDS011;45572;48.804;8.330;2023-05-07T08:03:32;4.10;;;3.30;;
3549;SDS011;45572;48.804;8.330;2023-05-07T08:06:02;4.50;;;2.87;;
3549;SDS011;45572;48.804;8.330;2023-05-07T08:08:33;5.50;;;3.60;;
3549;SDS011;45572;48.804;8.330;2023-05-07T08:11:02;3.80;;;2.80;;
3549;SDS011;45572;48.804;8.330;2023-05-07T08:13:34;3.97;;;3.23;;
3549;SDS011;45572;48.804;8.330;2023-05-07T08:16:03;4.13;;;2.97;;
3549;SDS011;45572;48.804;8.330;2023-05-07T08:18:32;3.60;;;3.07;;
3549;SDS011;45572;48.804;8.330;2023-05-07T08:21:03;9.10;;;3.77;;
3549;SDS011;45572;48.804;8.330;2023-05-07T08:23:34;4.20;;;2.87;;
3549;SDS011;45572;48.804;8.330;2023-05-07T08:26:05;4.00;;;3.03;;
3549;SDS011;45572;48.804;8.330;2023-05-07T08:28:34;2.70;;;2.37;;
3549;SDS011;45572;48.804;8.330;2023-05-07T08:31:02;3.57;;;2.70;;
3549;SDS011;45572;48.804;8.330;2023-05-07T08:33:35;3.40;;;2.20;;
3549;SDS011;45572;48.804;8.330;2023-05-07T08:36:07;3.27;;;2.60;;
3549;SDS011;45572;48.804;8.330;2023-05-07T08:38:35;4.13;;;2.33;;
3549;SDS011;45572;48.804;8.330;2023-05-07T08:41:03;6.60;;;2.50;;
3549;SDS011;45572;48.804;8.330;2023-05-07T08:43:34;3.20;;;2.17;;
3549;SDS011;45572;48.804;8.330;2023-05-07T08:46:04;3.20;;;2.17;;
3549;SDS011;45572;48.804;8.330;2023-05-07T08:48:41;2.50;;;2.10;;
3549;SDS011;45572;48.804;8.330;2023-05-07T08:51:16;2.40;;;2.00;;
3549;SDS011;45572;48.804;8.330;2023-05-07T08:53:45;2.70;;;1.70;;
3549;SDS011;45572;48.804;8.330;2023-05-07T08:56:19;2.47;;;1.80;;
3549;SDS011;45572;48.804;8.330;2023-05-07T08:58:50;2.10;;;1.67;;
3549;SDS011;45572;48.804;8.330;2023-05-07T09:01:19;2.17;;;1.73;;
3549;SDS011;45572;48.804;8.330;2023-05-07T09:03:50;2.40;;;2.20;;
3549;SDS011;45572;48.804;8.330;2023-05-07T09:06:22;2.00;;;1.83;;
3549;SDS011;45572;48.804;8.330;2023-05-07T09:08:54;3.30;;;1.90;;
3549;SDS011;45572;48.804;8.330;2023-05-07T09:11:26;2.50;;;1.80;;
3549;SDS011;45572;48.804;8.330;2023-05-07T09:13:58;2.17;;;1.90;;
3549;SDS011;45572;48.804;8.330;2023-05-07T09:16:31;2.80;;;1.53;;
3549;SDS011;45572;48.804;8.330;2023-05-07T09:19:00;2.90;;;2.00;;
3549;SDS011;45572;48.804;8.330;2023-05-07T09:21:29;2.27;;;2.07;;
3549;SDS011;45572;48.804;8.330;2023-05-07T09:24:00;3.80;;;1.67;;
3549;SDS011;45572;48.804;8.330;2023-05-07T09:26:34;3.10;;;1.97;;
3549;SDS011;45572;48.804;8.330;2023-05-07T09:29:04;5.33;;;3.10;;
3549;SDS011;45572;48.804;8.330;2023-05-07T09:31:36;2.33;;;1.53;;
3549;SDS011;45572;48.804;8.330;2023-05-07T09:34:06;3.23;;;1.80;;
3549;SDS011;45572;48.804;8.330;2023-05-07T09:36:38;2.60;;;1.80;;
3549;SDS011;45572;48.804;8.330;2023-05-07T09:39:07;6.37;;;1.73;;
3549;SDS011;45572;48.804;8.330;2023-05-07T09:41:43;2.80;;;2.20;;
3549;SDS011;45572;48.804;8.330;2023-05-07T09:44:24;1.57;;;1.47;;
3549;SDS011;45572;48.804;8.330;2023-05-07T09:46:53;2.13;;;1.67;;
3549;SDS011;45572;48.804;8.330;2023-05-07T09:49:29;1.83;;;1.70;;
3549;SDS011;45572;48.804;8.330;2023-05-07T09:52:06;2.13;;;1.90;;
3549;SDS011;45572;48.804;8.330;2023-05-07T09:54:45;2.73;;;2.53;;
3549;SDS011;45572;48.804;8.330;2023-05-07T09:57:18;2.67;;;1.90;;
3549;SDS011;45572;48.804;8.330;2023-05-07T09:59:51;2.10;;;1.30;;
3549;SDS011;45572;48.804;8.330;2023-05-07T10:02:22;4.30;;;1.87;;
3549;SDS011;45572;48.804;8.330;2023-05-07T10:04:56;2.83;;;1.73;;
3549;SDS011;45572;48.804;8.330;2023-05-07T10:07:32;1.70;;;1.60;;
3549;SDS011;45572;48.804;8.330;2023-05-07T10:10:05;2.00;;;1.70;;
3549;SDS011;45572;48.804;8.330;2023-05-07T10:12:41;1.97;;;1.77;;
3549;SDS011;45572;48.804;8.330;2023-05-07T10:15:17;2.70;;;2.03;;
3549;SDS011;45572;48.804;8.330;2023-05-07T10:17:50;2.60;;;2.40;;
3549;SDS011;45572;48.804;8.330;2023-05-07T10:20:22;2.13;;;1.67;;
3549;SDS011;45572;48.804;8.330;2023-05-07T10:22:53;3.90;;;1.87;;
3549;SDS011;45572;48.804;8.330;2023-05-07T10:25:34;2.70;;;1.80;;
3549;SDS011;45572;48.804;8.330;2023-05-07T10:28:12;5.83;;;2.13;;
3549;SDS011;45572;48.804;8.330;2023-05-07T10:30:47;3.20;;;1.97;;
3549;SDS011;45572;48.804;8.330;2023-05-07T10:33:26;4.63;;;1.67;;
3549;SDS011;45572;48.804;8.330;2023-05-07T10:35:59;2.53;;;2.13;;
3549;SDS011;45572;48.804;8.330;2023-05-07T10:38:32;2.30;;;1.80;;
3549;SDS011;45572;48.804;8.330;2023-05-07T10:41:01;2.07;;;1.63;;
3549;SDS011;45572;48.804;8.330;2023-05-07T10:43:41;1.87;;;1.67;;
3549;SDS011;45572;48.804;8.330;2023-05-07T10:46:18;3.40;;;2.00;;
3549;SDS011;45572;48.804;8.330;2023-05-07T10:55:18;4.53;;;1.87;;
3549;SDS011;45572;48.804;8.330;2023-05-07T11:01:02;2.73;;;1.60;;
3549;SDS011;45572;48.804;8.330;2023-05-07T11:03:36;3.57;;;1.90;;
3549;SDS011;45572;48.804;8.330;2023-05-07T11:06:49;2.73;;;2.17;;
3549;SDS011;45572;48.804;8.330;2023-05-07T11:09:58;3.40;;;2.03;;
3549;SDS011;45572;48.804;8.330;2023-05-07T11:12:51;3.30;;;3.00;;
3549;SDS011;45572;48.804;8.330;2023-05-07T11:15:33;3.50;;;2.20;;
3549;SDS011;45572;48.804;8.330;2023-05-07T11:18:06;2.30;;;2.10;;
3549;SDS011;45572;48.804;8.330;2023-05-07T11:20:44;2.67;;;1.70;;
3549;SDS011;45572;48.804;8.330;2023-05-07T11:26:29;3.30;;;2.23;;
3549;SDS011;45572;48.804;8.330;2023-05-07T11:28:58;3.30;;;1.83;;
3549;SDS011;45572;48.804;8.330;2023-05-07T11:31:27;2.70;;;2.00;;
3549;SDS011;45572;48.804;8.330;2023-05-07T11:33:59;3.40;;;1.60;;
3549;SDS011;45572;48.804;8.330;2023-05-07T11:36:30;2.03;;;1.77;;
3549;SDS011;45572;48.804;8.330;2023-05-07T11:39:01;4.23;;;1.83;;
3549;SDS011;45572;48.804;8.330;2023-05-07T11:41:34;6.30;;;2.80;;
3549;SDS011;45572;48.804;8.330;2023-05-07T11:44:03;4.97;;;2.30;;
3549;SDS011;45572;48.804;8.330;2023-05-07T11:46:31;3.17;;;2.23;;
3549;SDS011;45572;48.804;8.330;2023-05-07T11:49:02;2.57;;;1.90;;
3549;SDS011;45572;48.804;8.330;2023-05-07T11:51:29;2.60;;;1.80;;
3549;SDS011;45572;48.804;8.330;2023-05-07T11:53:58;3.43;;;2.67;;
3549;SDS011;45572;48.804;8.330;2023-05-07T11:56:33;2.40;;;2.20;;
3549;SDS011;45572;48.804;8.330;2023-05-07T11:59:02;2.30;;;2.07;;
3549;SDS011;45572;48.804;8.330;2023-05-07T12:01:30;5.20;;;2.20;;
3549;SDS011;45572;48.804;8.330;2023-05-07T12:03:58;2.70;;;1.90;;
3549;SDS011;45572;48.804;8.330;2023-05-07T12:06:30;3.80;;;1.90;;
3549;SDS011;45572;48.804;8.330;2023-05-07T12:08:57;7.83;;;2.40;;
3549;SDS011;45572;48.804;8.330;2023-05-07T12:11:25;1.80;;;1.60;;
3549;SDS011;45572;48.804;8.330;2023-05-07T12:13:54;2.93;;;2.03;;
3549;SDS011;45572;48.804;8.330;2023-05-07T12:16:25;5.10;;;2.17;;
3549;SDS011;45572;48.804;8.330;2023-05-07T12:18:54;2.63;;;2.03;;
3549;SDS011;45572;48.804;8.330;2023-05-07T12:21:22;2.90;;;2.07;;
3549;SDS011;45572;48.804;8.330;2023-05-07T12:23:51;4.17;;;2.10;;
3549;SDS011;45572;48.804;8.330;2023-05-07T12:26:19;3.60;;;2.20;;
3549;SDS011;45572;48.804;8.330;2023-05-07T12:28:49;3.13;;;1.97;;
3549;SDS011;45572;48.804;8.330;2023-05-07T12:31:19;4.23;;;2.20;;
3549;SDS011;45572;48.804;8.330;2023-05-07T12:33:47;2.27;;;2.00;;
3549;SDS011;45572;48.804;8.330;2023-05-07T12:36:15;5.60;;;2.63;;
3549;SDS011;45572;48.804;8.330;2023-05-07T12:38:42;2.50;;;2.30;;
3549;SDS011;45572;48.804;8.330;2023-05-07T12:41:10;8.73;;;3.37;;
3549;SDS011;45572;48.804;8.330;2023-05-07T12:43:39;5.50;;;2.77;;
3549;SDS011;45572;48.804;8.330;2023-05-07T12:46:07;3.30;;;2.47;;
3549;SDS011;45572;48.804;8.330;2023-05-07T12:48:37;4.00;;;3.07;;
3549;SDS011;45572;48.804;8.330;2023-05-07T12:51:06;5.27;;;3.00;;
3549;SDS011;45572;48.804;8.330;2023-05-07T12:53:39;6.93;;;3.47;;
3549;SDS011;45572;48.804;8.330;2023-05-07T12:56:08;4.40;;;3.00;;
3549;SDS011;45572;48.804;8.330;2023-05-07T12:58:36;5.73;;;3.77;;
3549;SDS011;45572;48.804;8.330;2023-05-07T13:01:05;5.27;;;3.57;;
3549;SDS011;45572;48.804;8.330;2023-05-07T13:03:37;4.23;;;3.50;;
3549;SDS011;45572;48.804;8.330;2023-05-07T13:06:07;5.00;;;3.63;;
3549;SDS011;45572;48.804;8.330;2023-05-07T13:08:40;12.00;;;3.97;;
3549;SDS011;45572;48.804;8.330;2023-05-07T13:11:11;4.40;;;3.77;;
3549;SDS011;45572;48.804;8.330;2023-05-07T13:13:40;5.03;;;3.03;;
3549;SDS011;45572;48.804;8.330;2023-05-07T13:16:08;3.00;;;2.17;;
3549;SDS011;45572;48.804;8.330;2023-05-07T13:18:40;3.97;;;2.17;;
3549;SDS011;45572;48.804;8.330;2023-05-07T13:21:14;6.13;;;1.53;;
3549;SDS011;45572;48.804;8.330;2023-05-07T13:23:42;3.20;;;1.70;;
3549;SDS011;45572;48.804;8.330;2023-05-07T13:26:10;3.27;;;1.97;;
3549;SDS011;45572;48.804;8.330;2023-05-07T13:28:52;3.00;;;1.70;;
3549;SDS011;45572;48.804;8.330;2023-05-07T13:31:20;3.33;;;2.60;;
3549;SDS011;45572;48.804;8.330;2023-05-07T13:33:50;3.57;;;1.43;;
3549;SDS011;45572;48.804;8.330;2023-05-07T13:36:18;4.27;;;1.53;;
3549;SDS011;45572;48.804;8.330;2023-05-07T13:38:46;1.80;;;1.03;;
3549;SDS011;45572;48.804;8.330;2023-05-07T13:41:14;1.50;;;1.00;;
3549;SDS011;45572;48.804;8.330;2023-05-07T13:43:42;2.60;;;0.90;;
3549;SDS011;45572;48.804;8.330;2023-05-07T13:46:10;2.37;;;1.40;;
3549;SDS011;45572;48.804;8.330;2023-05-07T13:48:38;2.80;;;1.50;;
3549;SDS011;45572;48.804;8.330;2023-05-07T13:51:08;3.33;;;1.30;;
3549;SDS011;45572;48.804;8.330;2023-05-07T13:53:36;3.93;;;1.40;;
3549;SDS011;45572;48.804;8.330;2023-05-07T13:56:06;5.07;;;2.00;;
3549;SDS011;45572;48.804;8.330;2023-05-07T13:58:35;3.83;;;1.97;;
3549;SDS011;45572;48.804;8.330;2023-05-07T14:01:24;2.80;;;1.30;;
3549;SDS011;45572;48.804;8.330;2023-05-07T14:03:55;3.77;;;1.10;;
3549;SDS011;45572;48.804;8.330;2023-05-07T14:06:28;2.40;;;1.53;;
3549;SDS011;45572;48.804;8.330;2023-05-07T14:08:57;2.40;;;1.47;;
3549;SDS011;45572;48.804;8.330;2023-05-07T14:11:28;2.33;;;1.30;;
3549;SDS011;45572;48.804;8.330;2023-05-07T14:14:02;2.17;;;1.43;;
3549;SDS011;45572;48.804;8.330;2023-05-07T14:16:32;4.07;;;1.40;;
3549;SDS011;45572;48.804;8.330;2023-05-07T14:18:59;4.37;;;1.63;;
3549;SDS011;45572;48.804;8.330;2023-05-07T14:21:29;2.83;;;1.57;;
3549;SDS011;45572;48.804;8.330;2023-05-07T14:23:58;2.60;;;1.50;;
3549;SDS011;45572;48.804;8.330;2023-05-07T14:26:26;2.33;;;1.97;;
3549;SDS011;45572;48.804;8.330;2023-05-07T14:28:56;2.53;;;1.50;;
3549;SDS011;45572;48.804;8.330;2023-05-07T14:31:24;2.23;;;1.83;;
3549;SDS011;45572;48.804;8.330;2023-05-07T14:33:52;3.87;;;1.80;;
3549;SDS011;45572;48.804;8.330;2023-05-07T14:36:20;2.20;;;1.30;;
3549;SDS011;45572;48.804;8.330;2023-05-07T14:38:52;1.80;;;1.40;;
3549;SDS011;45572;48.804;8.330;2023-05-07T14:41:20;2.30;;;1.63;;
3549;SDS011;45572;48.804;8.330;2023-05-07T14:43:49;4.37;;;1.50;;
3549;SDS011;45572;48.804;8.330;2023-05-07T14:46:18;2.00;;;1.50;;
3549;SDS011;45572;48.804;8.330;2023-05-07T14:48:46;5.17;;;2.00;;
3549;SDS011;45572;48.804;8.330;2023-05-07T14:51:14;2.20;;;1.37;;
3549;SDS011;45572;48.804;8.330;2023-05-07T14:53:42;2.00;;;1.20;;
3549;SDS011;45572;48.804;8.330;2023-05-07T14:56:12;2.67;;;1.20;;
3549;SDS011;45572;48.804;8.330;2023-05-07T14:58:40;1.70;;;1.40;;
3549;SDS011;45572;48.804;8.330;2023-05-07T15:01:08;1.50;;;1.20;;
3549;SDS011;45572;48.804;8.330;2023-05-07T15:03:38;1.80;;;1.30;;
3549;SDS011;45572;48.804;8.330;2023-05-07T15:06:06;2.07;;;1.40;;
3549;SDS011;45572;48.804;8.330;2023-05-07T15:08:34;2.10;;;1.60;;
3549;SDS011;45572;48.804;8.330;2023-05-07T15:11:02;2.10;;;1.30;;
3549;SDS011;45572;48.804;8.330;2023-05-07T15:13:32;3.47;;;1.30;;
3549;SDS011;45572;48.804;8.330;2023-05-07T15:16:03;2.00;;;1.60;;
3549;SDS011;45572;48.804;8.330;2023-05-07T15:18:31;1.83;;;1.43;;
3549;SDS011;45572;48.804;8.330;2023-05-07T15:21:01;3.87;;;1.60;;
3549;SDS011;45572;48.804;8.330;2023-05-07T15:23:31;2.57;;;1.53;;
3549;SDS011;45572;48.804;8.330;2023-05-07T15:25:59;3.03;;;1.47;;
3549;SDS011;45572;48.804;8.330;2023-05-07T15:28:27;2.40;;;1.47;;
3549;SDS011;45572;48.804;8.330;2023-05-07T15:30:58;4.20;;;1.90;;
3549;SDS011;45572;48.804;8.330;2023-05-07T15:33:26;2.20;;;1.80;;